sensor_id;sensor_type;location;lat;lon;timestamp;P1;durP1;ratioP1;P2;durP2;ratioP2
60038;SDS011;45916;52.734;6.544;2023-06-10T00:01:12;11.13;;;5.85;;
60038;SDS011;45916;52.734;6.544;2023-06-10T00:03:38;9.90;;;6.57;;
60038;SDS011;45916;52.734;6.544;2023-06-10T00:06:06;13.00;;;6.70;;
60038;SDS011;45916;52.734;6.544;2023-06-10T00:08:31;10.07;;;5.97;;
60038;SDS011;45916;52.734;6.544;2023-06-10T00:10:58;10.43;;;6.32;;
60038;SDS011;45916;52.734;6.544;2023-06-10T00:13:23;10.90;;;6.15;;
60038;SDS011;45916;52.734;6.544;2023-06-10T00:15:50;11.60;;;6.25;;
60038;SDS011;45916;52.734;6.544;2023-06-10T00:18:15;10.07;;;6.95;;
60038;SDS011;45916;52.734;6.544;2023-06-10T00:20:42;12.10;;;6.75;;
60038;SDS011;45916;52.734;6.544;2023-06-10T00:23:08;13.30;;;7.05;;
60038;SDS011;45916;52.734;6.544;2023-06-10T00:25:34;10.05;;;7.15;;
60038;SDS011;45916;52.734;6.544;2023-06-10T00:28:00;11.13;;;6.90;;
60038;SDS011;45916;52.734;6.544;2023-06-10T00:30:26;12.20;;;7.65;;
60038;SDS011;45916;52.734;6.544;2023-06-10T00:32:52;11.07;;;7.32;;
60038;SDS011;45916;52.734;6.544;2023-06-10T00:35:17;13.13;;;7.65;;
60038;SDS011;45916;52.734;6.544;2023-06-10T00:37:43;11.82;;;7.60;;
60038;SDS011;45916;52.734;6.544;2023-06-10T00:40:09;11.85;;;7.68;;
60038;SDS011;45916;52.734;6.544;2023-06-10T00:42:35;12.20;;;7.45;;
60038;SDS011;45916;52.734;6.544;2023-06-10T00:45:02;12.35;;;7.97;;
60038;SDS011;45916;52.734;6.544;2023-06-10T00:47:28;14.15;;;7.45;;
60038;SDS011;45916;52.734;6.544;2023-06-10T00:49:54;14.05;;;8.60;;
60038;SDS011;45916;52.734;6.544;2023-06-10T00:52:20;12.63;;;7.18;;
60038;SDS011;45916;52.734;6.544;2023-06-10T00:54:47;11.80;;;7.67;;
60038;SDS011;45916;52.734;6.544;2023-06-10T00:57:13;11.80;;;7.05;;
60038;SDS011;45916;52.734;6.544;2023-06-10T00:59:39;10.65;;;7.50;;
60038;SDS011;45916;52.734;6.544;2023-06-10T01:02:12;11.35;;;7.78;;
60038;SDS011;45916;52.734;6.544;2023-06-10T01:04:37;11.68;;;7.45;;
60038;SDS011;45916;52.734;6.544;2023-06-10T01:07:12;10.25;;;7.18;;
60038;SDS011;45916;52.734;6.544;2023-06-10T01:09:56;14.18;;;8.45;;
60038;SDS011;45916;52.734;6.544;2023-06-10T01:12:31;10.75;;;7.63;;
60038;SDS011;45916;52.734;6.544;2023-06-10T01:15:20;10.23;;;7.60;;
60038;SDS011;45916;52.734;6.544;2023-06-10T01:18:03;12.38;;;7.47;;
60038;SDS011;45916;52.734;6.544;2023-06-10T01:20:33;14.27;;;8.70;;
60038;SDS011;45916;52.734;6.544;2023-06-10T01:23:02;14.23;;;8.80;;
60038;SDS011;45916;52.734;6.544;2023-06-10T01:25:29;10.88;;;7.88;;
60038;SDS011;45916;52.734;6.544;2023-06-10T01:28:09;10.23;;;7.53;;
60038;SDS011;45916;52.734;6.544;2023-06-10T01:33:29;12.65;;;8.68;;
60038;SDS011;45916;52.734;6.544;2023-06-10T01:35:58;12.57;;;8.40;;
60038;SDS011;45916;52.734;6.544;2023-06-10T01:40:54;12.77;;;8.52;;
60038;SDS011;45916;52.734;6.544;2023-06-10T01:43:21;13.05;;;8.05;;
60038;SDS011;45916;52.734;6.544;2023-06-10T01:45:47;11.93;;;7.93;;
60038;SDS011;45916;52.734;6.544;2023-06-10T01:48:13;13.10;;;9.25;;
60038;SDS011;45916;52.734;6.544;2023-06-10T01:50:38;12.75;;;8.80;;
60038;SDS011;45916;52.734;6.544;2023-06-10T01:53:04;10.98;;;8.23;;
60038;SDS011;45916;52.734;6.544;2023-06-10T01:55:30;14.48;;;8.63;;
60038;SDS011;45916;52.734;6.544;2023-06-10T01:57:56;14.18;;;8.68;;
60038;SDS011;45916;52.734;6.544;2023-06-10T02:00:22;11.20;;;8.35;;
60038;SDS011;45916;52.734;6.544;2023-06-10T02:02:50;11.65;;;8.73;;
60038;SDS011;45916;52.734;6.544;2023-06-10T02:05:16;12.20;;;8.40;;
60038;SDS011;45916;52.734;6.544;2023-06-10T02:07:42;14.50;;;8.60;;
60038;SDS011;45916;52.734;6.544;2023-06-10T02:10:07;10.93;;;9.40;;
60038;SDS011;45916;52.734;6.544;2023-06-10T02:12:33;15.70;;;8.38;;
60038;SDS011;45916;52.734;6.544;2023-06-10T02:14:59;12.68;;;9.57;;
60038;SDS011;45916;52.734;6.544;2023-06-10T02:17:24;13.20;;;9.63;;
60038;SDS011;45916;52.734;6.544;2023-06-10T02:19:51;11.50;;;8.05;;
60038;SDS011;45916;52.734;6.544;2023-06-10T02:24:45;13.88;;;9.23;;
60038;SDS011;45916;52.734;6.544;2023-06-10T02:27:11;13.25;;;9.02;;
60038;SDS011;45916;52.734;6.544;2023-06-10T02:29:37;13.27;;;9.70;;
60038;SDS011;45916;52.734;6.544;2023-06-10T02:32:02;12.70;;;9.73;;
60038;SDS011;45916;52.734;6.544;2023-06-10T02:34:29;10.55;;;8.80;;
60038;SDS011;45916;52.734;6.544;2023-06-10T02:36:54;13.65;;;9.48;;
60038;SDS011;45916;52.734;6.544;2023-06-10T02:39:21;15.10;;;10.43;;
60038;SDS011;45916;52.734;6.544;2023-06-10T02:41:47;12.70;;;8.60;;
60038;SDS011;45916;52.734;6.544;2023-06-10T02:44:12;12.30;;;8.75;;
60038;SDS011;45916;52.734;6.544;2023-06-10T02:46:38;11.65;;;9.20;;
60038;SDS011;45916;52.734;6.544;2023-06-10T02:49:04;14.40;;;9.60;;
60038;SDS011;45916;52.734;6.544;2023-06-10T02:51:30;13.30;;;8.98;;
60038;SDS011;45916;52.734;6.544;2023-06-10T02:53:55;12.82;;;9.45;;
60038;SDS011;45916;52.734;6.544;2023-06-10T02:56:21;15.85;;;10.15;;
60038;SDS011;45916;52.734;6.544;2023-06-10T02:58:47;16.15;;;10.15;;
60038;SDS011;45916;52.734;6.544;2023-06-10T03:01:13;15.60;;;10.02;;
60038;SDS011;45916;52.734;6.544;2023-06-10T03:03:39;16.40;;;9.30;;
60038;SDS011;45916;52.734;6.544;2023-06-10T03:06:09;16.75;;;9.30;;
60038;SDS011;45916;52.734;6.544;2023-06-10T03:08:36;15.35;;;9.65;;
60038;SDS011;45916;52.734;6.544;2023-06-10T03:11:02;14.40;;;9.77;;
60038;SDS011;45916;52.734;6.544;2023-06-10T03:13:28;16.67;;;9.13;;
60038;SDS011;45916;52.734;6.544;2023-06-10T03:15:54;15.05;;;8.95;;
60038;SDS011;45916;52.734;6.544;2023-06-10T03:18:20;13.40;;;9.63;;
60038;SDS011;45916;52.734;6.544;2023-06-10T03:20:48;13.63;;;9.45;;
60038;SDS011;45916;52.734;6.544;2023-06-10T03:23:14;15.43;;;9.57;;
60038;SDS011;45916;52.734;6.544;2023-06-10T03:25:40;12.88;;;8.68;;
60038;SDS011;45916;52.734;6.544;2023-06-10T03:28:06;12.20;;;9.07;;
60038;SDS011;45916;52.734;6.544;2023-06-10T03:30:32;13.77;;;8.95;;
60038;SDS011;45916;52.734;6.544;2023-06-10T03:32:57;12.13;;;9.45;;
60038;SDS011;45916;52.734;6.544;2023-06-10T03:35:23;14.27;;;8.57;;
60038;SDS011;45916;52.734;6.544;2023-06-10T03:37:49;12.88;;;8.95;;
60038;SDS011;45916;52.734;6.544;2023-06-10T03:40:14;12.63;;;8.43;;
60038;SDS011;45916;52.734;6.544;2023-06-10T03:42:40;14.05;;;8.60;;
60038;SDS011;45916;52.734;6.544;2023-06-10T03:45:06;12.45;;;7.97;;
60038;SDS011;45916;52.734;6.544;2023-06-10T03:47:35;15.43;;;8.95;;
60038;SDS011;45916;52.734;6.544;2023-06-10T03:50:03;14.77;;;8.73;;
60038;SDS011;45916;52.734;6.544;2023-06-10T03:52:29;14.45;;;8.30;;
60038;SDS011;45916;52.734;6.544;2023-06-10T03:54:55;11.57;;;9.00;;
60038;SDS011;45916;52.734;6.544;2023-06-10T03:57:20;11.25;;;8.20;;
60038;SDS011;45916;52.734;6.544;2023-06-10T03:59:46;10.55;;;7.25;;
60038;SDS011;45916;52.734;6.544;2023-06-10T04:02:12;12.73;;;8.70;;
60038;SDS011;45916;52.734;6.544;2023-06-10T04:04:38;12.75;;;8.43;;
60038;SDS011;45916;52.734;6.544;2023-06-10T04:07:04;12.10;;;8.73;;
60038;SDS011;45916;52.734;6.544;2023-06-10T04:09:30;14.27;;;8.70;;
60038;SDS011;45916;52.734;6.544;2023-06-10T04:11:56;11.07;;;7.85;;
60038;SDS011;45916;52.734;6.544;2023-06-10T04:14:21;11.40;;;8.13;;
60038;SDS011;45916;52.734;6.544;2023-06-10T04:16:47;13.65;;;8.73;;
60038;SDS011;45916;52.734;6.544;2023-06-10T04:19:13;12.18;;;7.70;;
60038;SDS011;45916;52.734;6.544;2023-06-10T04:21:38;11.50;;;8.48;;
60038;SDS011;45916;52.734;6.544;2023-06-10T04:24:04;14.18;;;7.80;;
60038;SDS011;45916;52.734;6.544;2023-06-10T04:26:30;14.07;;;8.30;;
60038;SDS011;45916;52.734;6.544;2023-06-10T04:28:55;13.18;;;7.68;;
60038;SDS011;45916;52.734;6.544;2023-06-10T04:31:21;10.98;;;7.70;;
60038;SDS011;45916;52.734;6.544;2023-06-10T04:33:47;11.27;;;8.60;;
60038;SDS011;45916;52.734;6.544;2023-06-10T04:36:13;11.23;;;7.30;;
60038;SDS011;45916;52.734;6.544;2023-06-10T04:38:39;10.75;;;7.40;;
60038;SDS011;45916;52.734;6.544;2023-06-10T04:41:06;10.82;;;7.68;;
60038;SDS011;45916;52.734;6.544;2023-06-10T04:43:32;11.55;;;7.97;;
60038;SDS011;45916;52.734;6.544;2023-06-10T04:45:57;15.70;;;7.72;;
60038;SDS011;45916;52.734;6.544;2023-06-10T04:48:23;13.38;;;8.77;;
60038;SDS011;45916;52.734;6.544;2023-06-10T04:50:49;11.25;;;7.75;;
60038;SDS011;45916;52.734;6.544;2023-06-10T04:53:15;12.77;;;8.43;;
60038;SDS011;45916;52.734;6.544;2023-06-10T04:55:41;12.88;;;8.30;;
60038;SDS011;45916;52.734;6.544;2023-06-10T04:58:09;12.55;;;7.72;;
60038;SDS011;45916;52.734;6.544;2023-06-10T05:00:34;10.93;;;8.00;;
60038;SDS011;45916;52.734;6.544;2023-06-10T05:03:00;13.02;;;7.47;;
60038;SDS011;45916;52.734;6.544;2023-06-10T05:05:26;13.30;;;7.43;;
60038;SDS011;45916;52.734;6.544;2023-06-10T05:07:51;10.45;;;7.40;;
60038;SDS011;45916;52.734;6.544;2023-06-10T05:10:17;11.65;;;6.85;;
60038;SDS011;45916;52.734;6.544;2023-06-10T05:12:43;9.23;;;6.82;;
60038;SDS011;45916;52.734;6.544;2023-06-10T05:15:09;10.40;;;6.88;;
60038;SDS011;45916;52.734;6.544;2023-06-10T05:17:35;10.82;;;7.03;;
60038;SDS011;45916;52.734;6.544;2023-06-10T05:20:01;11.07;;;6.97;;
60038;SDS011;45916;52.734;6.544;2023-06-10T05:22:27;9.43;;;6.18;;
60038;SDS011;45916;52.734;6.544;2023-06-10T05:24:53;9.23;;;6.20;;
60038;SDS011;45916;52.734;6.544;2023-06-10T05:27:19;9.82;;;6.32;;
60038;SDS011;45916;52.734;6.544;2023-06-10T05:29:44;9.15;;;6.07;;
60038;SDS011;45916;52.734;6.544;2023-06-10T05:32:10;10.73;;;6.30;;
60038;SDS011;45916;52.734;6.544;2023-06-10T05:34:36;9.45;;;6.55;;
60038;SDS011;45916;52.734;6.544;2023-06-10T05:37:02;10.23;;;6.45;;
60038;SDS011;45916;52.734;6.544;2023-06-10T05:39:28;9.75;;;6.20;;
60038;SDS011;45916;52.734;6.544;2023-06-10T05:41:54;10.23;;;6.53;;
60038;SDS011;45916;52.734;6.544;2023-06-10T05:44:20;9.27;;;6.43;;
60038;SDS011;45916;52.734;6.544;2023-06-10T05:46:46;10.13;;;6.20;;
60038;SDS011;45916;52.734;6.544;2023-06-10T05:49:11;8.45;;;5.68;;
60038;SDS011;45916;52.734;6.544;2023-06-10T05:51:37;9.95;;;7.15;;
60038;SDS011;45916;52.734;6.544;2023-06-10T05:54:03;11.43;;;6.45;;
60038;SDS011;45916;52.734;6.544;2023-06-10T05:56:29;12.45;;;7.22;;
60038;SDS011;45916;52.734;6.544;2023-06-10T05:58:55;9.82;;;5.95;;
60038;SDS011;45916;52.734;6.544;2023-06-10T06:01:21;12.68;;;6.38;;
60038;SDS011;45916;52.734;6.544;2023-06-10T06:03:47;9.25;;;5.97;;
60038;SDS011;45916;52.734;6.544;2023-06-10T06:06:12;9.10;;;5.93;;
60038;SDS011;45916;52.734;6.544;2023-06-10T06:08:38;9.48;;;5.95;;
60038;SDS011;45916;52.734;6.544;2023-06-10T06:11:04;8.95;;;5.72;;
60038;SDS011;45916;52.734;6.544;2023-06-10T06:13:29;7.40;;;5.45;;
60038;SDS011;45916;52.734;6.544;2023-06-10T06:15:55;9.45;;;6.10;;
60038;SDS011;45916;52.734;6.544;2023-06-10T06:18:21;9.05;;;5.88;;
60038;SDS011;45916;52.734;6.544;2023-06-10T06:20:46;8.73;;;5.53;;
60038;SDS011;45916;52.734;6.544;2023-06-10T06:23:12;7.78;;;5.63;;
60038;SDS011;45916;52.734;6.544;2023-06-10T06:25:38;9.13;;;5.60;;
60038;SDS011;45916;52.734;6.544;2023-06-10T06:28:07;8.23;;;5.32;;
60038;SDS011;45916;52.734;6.544;2023-06-10T06:30:35;9.50;;;6.25;;
60038;SDS011;45916;52.734;6.544;2023-06-10T06:33:01;8.55;;;5.30;;
60038;SDS011;45916;52.734;6.544;2023-06-10T06:35:27;10.95;;;6.35;;
60038;SDS011;45916;52.734;6.544;2023-06-10T06:37:52;8.77;;;5.43;;
60038;SDS011;45916;52.734;6.544;2023-06-10T06:40:18;10.13;;;6.07;;
60038;SDS011;45916;52.734;6.544;2023-06-10T06:42:44;9.10;;;5.40;;
60038;SDS011;45916;52.734;6.544;2023-06-10T06:45:13;9.15;;;5.22;;
60038;SDS011;45916;52.734;6.544;2023-06-10T06:47:40;8.23;;;5.68;;
60038;SDS011;45916;52.734;6.544;2023-06-10T06:50:05;9.38;;;5.30;;
60038;SDS011;45916;52.734;6.544;2023-06-10T06:52:31;7.70;;;5.18;;
60038;SDS011;45916;52.734;6.544;2023-06-10T06:54:57;9.52;;;5.18;;
60038;SDS011;45916;52.734;6.544;2023-06-10T06:57:22;9.18;;;5.50;;
60038;SDS011;45916;52.734;6.544;2023-06-10T06:59:48;8.13;;;5.47;;
60038;SDS011;45916;52.734;6.544;2023-06-10T07:02:14;10.50;;;5.07;;
60038;SDS011;45916;52.734;6.544;2023-06-10T07:04:39;8.33;;;5.50;;
60038;SDS011;45916;52.734;6.544;2023-06-10T07:07:07;9.52;;;5.30;;
60038;SDS011;45916;52.734;6.544;2023-06-10T07:09:33;9.18;;;5.68;;
60038;SDS011;45916;52.734;6.544;2023-06-10T07:11:59;9.43;;;4.83;;
60038;SDS011;45916;52.734;6.544;2023-06-10T07:14:25;10.27;;;6.00;;
60038;SDS011;45916;52.734;6.544;2023-06-10T07:16:51;7.43;;;5.50;;
60038;SDS011;45916;52.734;6.544;2023-06-10T07:19:16;6.40;;;4.57;;
60038;SDS011;45916;52.734;6.544;2023-06-10T07:21:42;8.47;;;4.93;;
60038;SDS011;45916;52.734;6.544;2023-06-10T07:24:08;7.07;;;4.37;;
60038;SDS011;45916;52.734;6.544;2023-06-10T07:26:33;9.07;;;4.20;;
60038;SDS011;45916;52.734;6.544;2023-06-10T07:28:59;11.63;;;5.00;;
60038;SDS011;45916;52.734;6.544;2023-06-10T07:31:25;8.40;;;5.30;;
60038;SDS011;45916;52.734;6.544;2023-06-10T07:33:51;10.03;;;5.03;;
60038;SDS011;45916;52.734;6.544;2023-06-10T07:36:16;8.23;;;5.00;;
60038;SDS011;45916;52.734;6.544;2023-06-10T07:38:42;7.03;;;4.23;;
60038;SDS011;45916;52.734;6.544;2023-06-10T07:41:08;8.87;;;5.00;;
60038;SDS011;45916;52.734;6.544;2023-06-10T07:43:34;7.63;;;4.95;;
60038;SDS011;45916;52.734;6.544;2023-06-10T07:46:00;9.50;;;4.37;;
60038;SDS011;45916;52.734;6.544;2023-06-10T07:48:25;8.13;;;5.10;;
60038;SDS011;45916;52.734;6.544;2023-06-10T07:50:51;7.43;;;5.07;;
60038;SDS011;45916;52.734;6.544;2023-06-10T07:53:17;8.43;;;4.53;;
60038;SDS011;45916;52.734;6.544;2023-06-10T07:55:43;7.83;;;5.37;;
60038;SDS011;45916;52.734;6.544;2023-06-10T07:58:09;7.33;;;4.40;;
60038;SDS011;45916;52.734;6.544;2023-06-10T08:00:35;7.57;;;4.80;;
60038;SDS011;45916;52.734;6.544;2023-06-10T08:03:01;8.27;;;5.13;;
60038;SDS011;45916;52.734;6.544;2023-06-10T08:05:26;8.20;;;4.70;;
60038;SDS011;45916;52.734;6.544;2023-06-10T08:07:52;8.47;;;4.37;;
60038;SDS011;45916;52.734;6.544;2023-06-10T08:10:18;7.87;;;4.63;;
60038;SDS011;45916;52.734;6.544;2023-06-10T08:12:44;6.93;;;4.43;;
60038;SDS011;45916;52.734;6.544;2023-06-10T08:15:09;6.50;;;4.07;;
60038;SDS011;45916;52.734;6.544;2023-06-10T08:17:36;9.43;;;4.53;;
60038;SDS011;45916;52.734;6.544;2023-06-10T08:20:03;7.97;;;4.50;;
60038;SDS011;45916;52.734;6.544;2023-06-10T08:22:29;8.35;;;4.68;;
60038;SDS011;45916;52.734;6.544;2023-06-10T08:24:54;6.47;;;4.40;;
60038;SDS011;45916;52.734;6.544;2023-06-10T08:27:21;7.45;;;4.20;;
60038;SDS011;45916;52.734;6.544;2023-06-10T08:29:46;7.27;;;4.33;;
60038;SDS011;45916;52.734;6.544;2023-06-10T08:32:12;9.00;;;4.47;;
60038;SDS011;45916;52.734;6.544;2023-06-10T08:34:38;7.37;;;4.17;;
60038;SDS011;45916;52.734;6.544;2023-06-10T08:37:04;7.00;;;4.25;;
60038;SDS011;45916;52.734;6.544;2023-06-10T08:39:30;8.50;;;4.97;;
60038;SDS011;45916;52.734;6.544;2023-06-10T08:44:31;8.15;;;4.72;;
60038;SDS011;45916;52.734;6.544;2023-06-10T08:47:01;8.07;;;5.05;;
60038;SDS011;45916;52.734;6.544;2023-06-10T08:49:30;8.00;;;4.40;;
60038;SDS011;45916;52.734;6.544;2023-06-10T08:51:58;7.60;;;4.43;;
60038;SDS011;45916;52.734;6.544;2023-06-10T08:54:27;7.55;;;4.72;;
60038;SDS011;45916;52.734;6.544;2023-06-10T08:56:57;7.07;;;4.75;;
60038;SDS011;45916;52.734;6.544;2023-06-10T08:59:25;7.68;;;5.47;;
60038;SDS011;45916;52.734;6.544;2023-06-10T09:01:51;8.32;;;5.20;;
60038;SDS011;45916;52.734;6.544;2023-06-10T09:04:18;8.98;;;6.40;;
60038;SDS011;45916;52.734;6.544;2023-06-10T09:06:45;10.98;;;5.55;;
60038;SDS011;45916;52.734;6.544;2023-06-10T09:09:14;8.70;;;5.55;;
60038;SDS011;45916;52.734;6.544;2023-06-10T09:11:43;7.53;;;4.80;;
60038;SDS011;45916;52.734;6.544;2023-06-10T09:14:09;9.60;;;6.13;;
60038;SDS011;45916;52.734;6.544;2023-06-10T09:16:35;9.37;;;6.23;;
60038;SDS011;45916;52.734;6.544;2023-06-10T09:19:01;8.93;;;5.93;;
60038;SDS011;45916;52.734;6.544;2023-06-10T09:21:32;7.70;;;5.45;;
60038;SDS011;45916;52.734;6.544;2023-06-10T09:23:59;10.00;;;6.35;;
60038;SDS011;45916;52.734;6.544;2023-06-10T09:26:28;9.23;;;5.47;;
60038;SDS011;45916;52.734;6.544;2023-06-10T09:29:13;8.57;;;5.88;;
60038;SDS011;45916;52.734;6.544;2023-06-10T09:31:39;10.93;;;5.70;;
60038;SDS011;45916;52.734;6.544;2023-06-10T09:34:13;7.30;;;5.38;;
60038;SDS011;45916;52.734;6.544;2023-06-10T09:36:40;9.77;;;6.35;;
60038;SDS011;45916;52.734;6.544;2023-06-10T09:39:16;7.65;;;5.25;;
60038;SDS011;45916;52.734;6.544;2023-06-10T09:41:43;8.85;;;5.20;;
60038;SDS011;45916;52.734;6.544;2023-06-10T09:44:14;8.73;;;5.55;;
60038;SDS011;45916;52.734;6.544;2023-06-10T09:46:41;8.02;;;5.22;;
60038;SDS011;45916;52.734;6.544;2023-06-10T09:49:07;8.45;;;5.32;;
60038;SDS011;45916;52.734;6.544;2023-06-10T09:51:33;8.87;;;5.87;;
60038;SDS011;45916;52.734;6.544;2023-06-10T09:53:59;8.80;;;5.13;;
60038;SDS011;45916;52.734;6.544;2023-06-10T09:56:34;7.88;;;5.43;;
60038;SDS011;45916;52.734;6.544;2023-06-10T09:59:01;6.90;;;5.10;;
60038;SDS011;45916;52.734;6.544;2023-06-10T10:01:28;8.45;;;5.40;;
60038;SDS011;45916;52.734;6.544;2023-06-10T10:03:55;6.90;;;5.60;;
60038;SDS011;45916;52.734;6.544;2023-06-10T10:06:21;8.27;;;6.17;;
60038;SDS011;45916;52.734;6.544;2023-06-10T10:08:47;9.10;;;5.40;;
60038;SDS011;45916;52.734;6.544;2023-06-10T10:11:18;15.50;;;6.05;;
60038;SDS011;45916;52.734;6.544;2023-06-10T10:13:47;7.78;;;5.43;;
60038;SDS011;45916;52.734;6.544;2023-06-10T10:16:22;12.43;;;5.78;;
60038;SDS011;45916;52.734;6.544;2023-06-10T10:18:55;10.18;;;5.10;;
60038;SDS011;45916;52.734;6.544;2023-06-10T10:21:25;9.02;;;5.70;;
60038;SDS011;45916;52.734;6.544;2023-06-10T10:26:28;7.13;;;4.90;;
60038;SDS011;45916;52.734;6.544;2023-06-10T10:28:58;7.50;;;5.10;;
60038;SDS011;45916;52.734;6.544;2023-06-10T10:31:43;7.10;;;5.25;;
60038;SDS011;45916;52.734;6.544;2023-06-10T10:34:12;6.73;;;4.43;;
60038;SDS011;45916;52.734;6.544;2023-06-10T10:36:42;7.28;;;4.43;;
60038;SDS011;45916;52.734;6.544;2023-06-10T10:39:08;6.47;;;4.22;;
60038;SDS011;45916;52.734;6.544;2023-06-10T10:41:35;6.45;;;4.22;;
60038;SDS011;45916;52.734;6.544;2023-06-10T10:44:03;7.30;;;4.80;;
60038;SDS011;45916;52.734;6.544;2023-06-10T10:46:41;8.90;;;5.22;;
60038;SDS011;45916;52.734;6.544;2023-06-10T10:49:15;7.60;;;4.72;;
60038;SDS011;45916;52.734;6.544;2023-06-10T10:51:55;7.13;;;4.25;;
60038;SDS011;45916;52.734;6.544;2023-06-10T10:55:05;5.20;;;3.67;;
60038;SDS011;45916;52.734;6.544;2023-06-10T10:57:13;6.60;;;4.82;;
60038;SDS011;45916;52.734;6.544;2023-06-10T11:02:39;6.60;;;4.53;;
60038;SDS011;45916;52.734;6.544;2023-06-10T11:05:12;7.50;;;4.32;;
60038;SDS011;45916;52.734;6.544;2023-06-10T11:07:40;7.22;;;3.92;;
60038;SDS011;45916;52.734;6.544;2023-06-10T11:10:07;7.38;;;4.60;;
60038;SDS011;45916;52.734;6.544;2023-06-10T11:12:50;5.63;;;3.50;;
60038;SDS011;45916;52.734;6.544;2023-06-10T11:15:25;6.88;;;4.30;;
60038;SDS011;45916;52.734;6.544;2023-06-10T11:28:39;7.90;;;3.67;;
60038;SDS011;45916;52.734;6.544;2023-06-10T11:31:05;5.43;;;3.70;;
60038;SDS011;45916;52.734;6.544;2023-06-10T11:33:32;6.53;;;3.58;;
60038;SDS011;45916;52.734;6.544;2023-06-10T11:35:58;7.00;;;3.88;;
60038;SDS011;45916;52.734;6.544;2023-06-10T11:38:24;5.57;;;3.75;;
60038;SDS011;45916;52.734;6.544;2023-06-10T11:40:50;5.55;;;3.67;;
60038;SDS011;45916;52.734;6.544;2023-06-10T11:43:17;5.53;;;3.47;;
60038;SDS011;45916;52.734;6.544;2023-06-10T11:45:43;7.03;;;4.10;;
60038;SDS011;45916;52.734;6.544;2023-06-10T11:48:09;7.25;;;4.03;;
60038;SDS011;45916;52.734;6.544;2023-06-10T11:50:35;5.50;;;3.60;;
60038;SDS011;45916;52.734;6.544;2023-06-10T11:53:02;5.57;;;3.80;;
60038;SDS011;45916;52.734;6.544;2023-06-10T11:55:47;6.68;;;3.42;;
60038;SDS011;45916;52.734;6.544;2023-06-10T11:58:16;7.68;;;4.20;;
60038;SDS011;45916;52.734;6.544;2023-06-10T12:03:13;6.55;;;3.78;;
60038;SDS011;45916;52.734;6.544;2023-06-10T12:05:38;7.35;;;3.65;;
60038;SDS011;45916;52.734;6.544;2023-06-10T12:08:11;5.70;;;3.60;;
60038;SDS011;45916;52.734;6.544;2023-06-10T12:10:43;6.88;;;3.88;;
60038;SDS011;45916;52.734;6.544;2023-06-10T12:13:09;6.28;;;3.70;;
60038;SDS011;45916;52.734;6.544;2023-06-10T12:15:35;6.30;;;3.58;;
60038;SDS011;45916;52.734;6.544;2023-06-10T12:18:01;7.03;;;4.00;;
60038;SDS011;45916;52.734;6.544;2023-06-10T12:20:28;6.28;;;3.60;;
60038;SDS011;45916;52.734;6.544;2023-06-10T12:22:59;6.35;;;4.03;;
60038;SDS011;45916;52.734;6.544;2023-06-10T12:25:26;7.20;;;3.55;;
60038;SDS011;45916;52.734;6.544;2023-06-10T12:27:55;7.57;;;4.18;;
60038;SDS011;45916;52.734;6.544;2023-06-10T12:30:23;5.93;;;3.45;;
60038;SDS011;45916;52.734;6.544;2023-06-10T12:32:51;5.88;;;3.33;;
60038;SDS011;45916;52.734;6.544;2023-06-10T12:35:22;6.28;;;3.58;;
60038;SDS011;45916;52.734;6.544;2023-06-10T12:40:25;7.47;;;3.50;;
60038;SDS011;45916;52.734;6.544;2023-06-10T12:42:53;7.65;;;3.47;;
60038;SDS011;45916;52.734;6.544;2023-06-10T12:45:26;5.93;;;3.93;;
60038;SDS011;45916;52.734;6.544;2023-06-10T12:48:05;6.25;;;3.70;;
60038;SDS011;45916;52.734;6.544;2023-06-10T12:50:32;6.75;;;3.65;;
60038;SDS011;45916;52.734;6.544;2023-06-10T12:52:59;6.72;;;3.55;;
60038;SDS011;45916;52.734;6.544;2023-06-10T12:55:25;5.82;;;3.38;;
60038;SDS011;45916;52.734;6.544;2023-06-10T12:57:51;10.52;;;4.07;;
60038;SDS011;45916;52.734;6.544;2023-06-10T13:00:18;5.60;;;2.90;;
60038;SDS011;45916;52.734;6.544;2023-06-10T13:02:44;6.38;;;2.97;;
60038;SDS011;45916;52.734;6.544;2023-06-10T13:05:10;6.75;;;3.42;;
60038;SDS011;45916;52.734;6.544;2023-06-10T13:07:35;5.95;;;2.90;;
60038;SDS011;45916;52.734;6.544;2023-06-10T13:10:01;6.38;;;3.17;;
60038;SDS011;45916;52.734;6.544;2023-06-10T13:12:27;5.28;;;2.80;;
60038;SDS011;45916;52.734;6.544;2023-06-10T13:14:54;8.35;;;3.58;;
60038;SDS011;45916;52.734;6.544;2023-06-10T13:17:20;8.15;;;3.53;;
60038;SDS011;45916;52.734;6.544;2023-06-10T13:19:46;6.10;;;3.10;;
60038;SDS011;45916;52.734;6.544;2023-06-10T13:24:39;5.57;;;3.28;;
60038;SDS011;45916;52.734;6.544;2023-06-10T13:27:06;6.55;;;3.45;;
60038;SDS011;45916;52.734;6.544;2023-06-10T13:29:32;6.25;;;3.33;;
60038;SDS011;45916;52.734;6.544;2023-06-10T13:31:57;5.85;;;3.92;;
60038;SDS011;45916;52.734;6.544;2023-06-10T13:34:23;5.40;;;3.20;;
60038;SDS011;45916;52.734;6.544;2023-06-10T13:36:49;5.68;;;2.80;;
60038;SDS011;45916;52.734;6.544;2023-06-10T13:39:15;5.80;;;3.63;;
60038;SDS011;45916;52.734;6.544;2023-06-10T13:41:40;8.85;;;3.63;;
60038;SDS011;45916;52.734;6.544;2023-06-10T13:44:07;7.35;;;3.65;;
60038;SDS011;45916;52.734;6.544;2023-06-10T13:46:32;5.72;;;3.45;;
60038;SDS011;45916;52.734;6.544;2023-06-10T13:48:58;8.70;;;3.42;;
60038;SDS011;45916;52.734;6.544;2023-06-10T13:51:24;6.68;;;3.75;;
60038;SDS011;45916;52.734;6.544;2023-06-10T13:53:50;7.72;;;3.60;;
60038;SDS011;45916;52.734;6.544;2023-06-10T13:56:17;6.33;;;3.90;;
60038;SDS011;45916;52.734;6.544;2023-06-10T13:58:43;6.97;;;4.07;;
60038;SDS011;45916;52.734;6.544;2023-06-10T14:01:09;6.97;;;3.63;;
60038;SDS011;45916;52.734;6.544;2023-06-10T14:03:35;7.88;;;4.28;;
60038;SDS011;45916;52.734;6.544;2023-06-10T14:06:00;6.28;;;3.78;;
60038;SDS011;45916;52.734;6.544;2023-06-10T14:08:27;7.35;;;3.45;;
60038;SDS011;45916;52.734;6.544;2023-06-10T14:10:53;6.22;;;3.30;;
60038;SDS011;45916;52.734;6.544;2023-06-10T14:13:18;6.68;;;3.75;;
60038;SDS011;45916;52.734;6.544;2023-06-10T14:15:44;6.38;;;3.75;;
60038;SDS011;45916;52.734;6.544;2023-06-10T14:18:10;5.82;;;4.00;;
60038;SDS011;45916;52.734;6.544;2023-06-10T14:20:36;6.60;;;4.07;;
60038;SDS011;45916;52.734;6.544;2023-06-10T14:23:02;7.38;;;4.32;;
60038;SDS011;45916;52.734;6.544;2023-06-10T14:25:27;6.05;;;4.03;;
60038;SDS011;45916;52.734;6.544;2023-06-10T14:27:53;6.70;;;4.10;;
60038;SDS011;45916;52.734;6.544;2023-06-10T14:30:19;7.20;;;4.32;;
60038;SDS011;45916;52.734;6.544;2023-06-10T14:32:44;6.18;;;4.07;;
60038;SDS011;45916;52.734;6.544;2023-06-10T14:35:10;7.20;;;5.00;;
60038;SDS011;45916;52.734;6.544;2023-06-10T14:37:36;8.30;;;4.45;;
60038;SDS011;45916;52.734;6.544;2023-06-10T14:40:03;8.02;;;4.30;;
60038;SDS011;45916;52.734;6.544;2023-06-10T14:42:30;7.15;;;4.70;;
60038;SDS011;45916;52.734;6.544;2023-06-10T14:44:57;7.78;;;4.07;;
60038;SDS011;45916;52.734;6.544;2023-06-10T14:47:23;7.75;;;4.70;;
60038;SDS011;45916;52.734;6.544;2023-06-10T14:49:49;6.97;;;4.53;;
60038;SDS011;45916;52.734;6.544;2023-06-10T14:52:15;6.40;;;4.80;;
60038;SDS011;45916;52.734;6.544;2023-06-10T14:54:41;5.85;;;4.15;;
60038;SDS011;45916;52.734;6.544;2023-06-10T14:57:06;6.78;;;4.30;;
60038;SDS011;45916;52.734;6.544;2023-06-10T14:59:33;7.32;;;4.32;;
60038;SDS011;45916;52.734;6.544;2023-06-10T15:02:01;8.18;;;4.53;;
60038;SDS011;45916;52.734;6.544;2023-06-10T15:04:27;6.43;;;4.25;;
60038;SDS011;45916;52.734;6.544;2023-06-10T15:06:53;6.57;;;4.60;;
60038;SDS011;45916;52.734;6.544;2023-06-10T15:09:19;6.18;;;4.57;;
60038;SDS011;45916;52.734;6.544;2023-06-10T15:11:45;6.93;;;4.45;;
60038;SDS011;45916;52.734;6.544;2023-06-10T15:14:11;7.22;;;4.32;;
60038;SDS011;45916;52.734;6.544;2023-06-10T15:16:37;6.90;;;4.45;;